Time;durP1;ratioP1;P1;durP2;ratioP2;P2;SDS_P1;SDS_P2;PMS_P1;PMS_P2;Temp;Humidity;BMP_temperature;BMP_pressure;BME280_temperature;BME280_humidity;BME280_pressure;Samples;Min_cycle;Max_cycle;Signal;HPM_P1;HPM_P2
2024/01/31 00:00:31;;;;;;;;;;;;;;;;;;5075561;28;19931;-71
2024/01/31 00:02:58;;;;;;;;;;;;;;;;;;5074917;28;19985;-70
2024/01/31 00:05:25;;;;;;;;;;;;;;;;;;5075266;28;19967;-71
2024/01/31 00:07:52;;;;;;;;;;;;;;;;;;5079991;28;19926;-71
2024/01/31 00:10:19;;;;;;;;;;;;;;;;;;5094878;28;19970;-71
2024/01/31 00:12:46;;;;;;;;;;;;;;;;;;5094170;28;19930;-71
2024/01/31 00:15:16;;;;;;;;;;;;;;;;;;5074666;28;20449;-71
2024/01/31 00:17:43;;;;;;;;;;;;;;;;;;5076165;28;20418;-72
2024/01/31 00:20:10;;;;;;;;;;;;;;;;;;5073603;28;19928;-72
2024/01/31 00:22:37;;;;;;;;;;;;;;;;;;5073238;28;20357;-72
2024/01/31 00:25:04;;;;;;;;;;;;;;;;;;5073444;28;19925;-71
2024/01/31 00:27:31;;;;;;;;;;;;;;;;;;5074764;28;19924;-70
2024/01/31 00:29:58;;;;;;;;;;;;;;;;;;5079251;28;20357;-72
2024/01/31 00:32:25;;;;;;;;;;;;;;;;;;5095189;28;19924;-72
2024/01/31 00:34:53;;;;;;;;;;;;;;;;;;5091897;28;19924;-73
2024/01/31 00:37:20;;;;;;;;;;;;;;;;;;5074509;28;19994;-71
2024/01/31 00:39:47;;;;;;;;;;;;;;;;;;5074663;28;19978;-72
2024/01/31 00:42:14;;;;;;;;;;;;;;;;;;5095325;28;19977;-71
2024/01/31 00:44:42;;;;;;;;;;;;;;;;;;5080431;28;19926;-72
2024/01/31 00:47:10;;;;;;;;;;;;;;;;;;5074200;28;19974;-72
2024/01/31 00:49:37;;;;;;;;;;;;;;;;;;5061688;28;19972;-72
2024/01/31 00:52:04;;;;;;;;;;;;;;;;;;5091396;28;19977;-73
2024/01/31 00:54:31;;;;;;;;;;;;;;;;;;5081025;28;20069;-73
2024/01/31 00:56:58;;;;;;;;;;;;;;;;;;5073181;28;19994;-72
2024/01/31 00:59:25;;;;;;;;;;;;;;;;;;5076894;28;19925;-73
2024/01/31 01:01:52;;;;;;;;;;;;;;;;;;5079575;28;19924;-72
2024/01/31 01:04:19;;;;;;;;;;;;;;;;;;5074151;28;19924;-73
2024/01/31 01:06:46;;;;;;;;;;;;;;;;;;5074034;28;19924;-72
2024/01/31 01:09:13;;;;;;;;;;;;;;;;;;5074543;28;20042;-72
2024/01/31 01:11:40;;;;;;;;;;;;;;;;;;5074729;28;19924;-72
2024/01/31 01:14:07;;;;;;;;;;;;;;;;;;5073939;28;19931;-72
2024/01/31 01:16:34;;;;;;;;;;;;;;;;;;5073185;28;19936;-72
2024/01/31 01:19:03;;;;;;;;;;;;;;;;;;5071892;28;19924;-72
2024/01/31 01:21:30;;;;;;;;;;;;;;;;;;5072948;28;19964;-72
2024/01/31 01:23:57;;;;;;;;;;;;;;;;;;5073807;28;20283;-73
2024/01/31 01:26:24;;;;;;;;;;;;;;;;;;5082297;28;19978;-72
2024/01/31 01:28:51;;;;;;;;;;;;;;;;;;5073366;28;19924;-72
2024/01/31 01:31:18;;;;;;;;;;;;;;;;;;5073581;28;20342;-72
2024/01/31 01:33:45;;;;;;;;;;;;;;;;;;5073388;28;19924;-72
2024/01/31 01:36:12;;;;;;;;;;;;;;;;;;5073266;28;20287;-72
2024/01/31 01:38:39;;;;;;;;;;;;;;;;;;5070337;28;20268;-72
2024/01/31 01:41:06;;;;;;;;;;;;;;;;;;5072137;28;20299;-72
2024/01/31 01:43:33;;;;;;;;;;;;;;;;;;5073358;28;19972;-72
2024/01/31 01:46:00;;;;;;;;;;;;;;;;;;5072888;28;19924;-72
2024/01/31 01:48:27;;;;;;;;;;;;;;;;;;5072381;28;19977;-71
2024/01/31 01:50:54;;;;;;;;;;;;;;;;;;5073374;28;20387;-72
2024/01/31 01:53:21;;;;;;;;;;;;;;;;;;5080478;28;19961;-72
2024/01/31 01:55:48;;;;;;;;;;;;;;;;;;5093497;28;19932;-72
2024/01/31 01:58:15;;;;;;;;;;;;;;;;;;5076130;28;20387;-73
2024/01/31 02:00:43;;;;;;;;;;;;;;;;;;5087878;28;19924;-72
2024/01/31 02:03:10;;;;;;;;;;;;;;;;;;5092274;28;20415;-72
2024/01/31 02:05:39;;;;;;;;;;;;;;;;;;5077785;28;20331;-71
2024/01/31 02:08:06;;;;;;;;;;;;;;;;;;5071658;28;20332;-72
2024/01/31 02:10:33;;;;;;;;;;;;;;;;;;5072596;28;19926;-72
2024/01/31 02:13:00;;;;;;;;;;;;;;;;;;5072908;28;19925;-73
2024/01/31 02:15:27;;;;;;;;;;;;;;;;;;5073163;28;19925;-73
2024/01/31 02:17:54;;;;;;;;;;;;;;;;;;5073634;28;20334;-73
2024/01/31 02:20:22;;;;;;;;;;;;;;;;;;5072681;28;19970;-73
2024/01/31 02:22:49;;;;;;;;;;;;;;;;;;5074656;28;19925;-73
2024/01/31 02:25:16;;;;;;;;;;;;;;;;;;5082249;28;19924;-73
2024/01/31 02:27:43;;;;;;;;;;;;;;;;;;5072105;28;19925;-73
2024/01/31 02:30:10;;;;;;;;;;;;;;;;;;5072680;28;19972;-73
2024/01/31 02:32:37;;;;;;;;;;;;;;;;;;5072827;28;19978;-74
2024/01/31 02:35:04;;;;;;;;;;;;;;;;;;5077487;28;20372;-70
2024/01/31 02:37:31;;;;;;;;;;;;;;;;;;5071822;28;19953;-71
2024/01/31 02:39:58;;;;;;;;;;;;;;;;;;5073155;28;19932;-71
2024/01/31 02:42:25;;;;;;;;;;;;;;;;;;5072032;28;20383;-71
2024/01/31 02:44:52;;;;;;;;;;;;;;;;;;5074065;28;19925;-71
2024/01/31 02:47:19;;;;;;;;;;;;;;;;;;5069075;28;19978;-71
2024/01/31 02:49:46;;;;;;;;;;;;;;;;;;5072051;28;19924;-71
2024/01/31 02:52:13;;;;;;;;;;;;;;;;;;5074180;28;20252;-72
2024/01/31 02:54:40;;;;;;;;;;;;;;;;;;5071958;28;19924;-72
2024/01/31 02:57:07;;;;;;;;;;;;;;;;;;5070975;28;19964;-72
2024/01/31 02:59:35;;;;;;;;;;;;;;;;;;5069712;28;20453;-72
2024/01/31 03:02:02;;;;;;;;;;;;;;;;;;5071404;28;19978;-72
2024/01/31 03:04:29;;;;;;;;;;;;;;;;;;5065375;28;20429;-72
2024/01/31 03:06:56;;;;;;;;;;;;;;;;;;5057890;28;19924;-71
2024/01/31 03:09:23;;;;;;;;;;;;;;;;;;5071783;28;19970;-71
2024/01/31 03:11:50;;;;;;;;;;;;;;;;;;5075827;28;19924;-71
2024/01/31 03:14:17;;;;;;;;;;;;;;;;;;5076626;28;19931;-71
2024/01/31 03:16:44;;;;;;;;;;;;;;;;;;5077824;28;19986;-71
2024/01/31 03:19:11;;;;;;;;;;;;;;;;;;5096487;28;19924;-71
2024/01/31 03:21:38;;;;;;;;;;;;;;;;;;5085449;28;19928;-71
2024/01/31 03:24:05;;;;;;;;;;;;;;;;;;5080810;28;19932;-72
2024/01/31 03:26:32;;;;;;;;;;;;;;;;;;5096121;28;19924;-72
2024/01/31 03:29:01;;;;;;;;;;;;;;;;;;5089217;28;19928;-72
2024/01/31 03:31:28;;;;;;;;;;;;;;;;;;5076027;28;19982;-72
2024/01/31 03:33:55;;;;;;;;;;;;;;;;;;5072099;28;19925;-73
2024/01/31 03:36:22;;;;;;;;;;;;;;;;;;5075468;28;19924;-72
2024/01/31 03:38:49;;;;;;;;;;;;;;;;;;5081322;28;19929;-72
2024/01/31 03:41:16;;;;;;;;;;;;;;;;;;5075680;28;20284;-71
2024/01/31 03:43:43;;;;;;;;;;;;;;;;;;5076145;28;19924;-70
2024/01/31 03:46:10;;;;;;;;;;;;;;;;;;5074668;28;19977;-71
2024/01/31 03:48:37;;;;;;;;;;;;;;;;;;5056625;28;20304;-71
2024/01/31 03:51:04;;;;;;;;;;;;;;;;;;5067595;28;19924;-72
2024/01/31 03:53:31;;;;;;;;;;;;;;;;;;5089883;28;19924;-72
2024/01/31 03:55:58;;;;;;;;;;;;;;;;;;5080332;28;20358;-71
2024/01/31 03:58:25;;;;;;;;;;;;;;;;;;5076143;28;19924;-71
2024/01/31 04:00:52;;;;;;;;;;;;;;;;;;5095264;28;19924;-72
2024/01/31 04:03:21;;;;;;;;;;;;;;;;;;5077406;28;20436;-71
2024/01/31 04:05:48;;;;;;;;;;;;;;;;;;5073848;28;20399;-71
2024/01/31 04:08:15;;;;;;;;;;;;;;;;;;5075368;28;19924;-71
2024/01/31 04:10:42;;;;;;;;;;;;;;;;;;5075064;28;19928;-71
2024/01/31 04:13:09;;;;;;;;;;;;;;;;;;5074993;28;19928;-71
2024/01/31 04:15:36;;;;;;;;;;;;;;;;;;5074554;28;20014;-71
2024/01/31 04:18:04;;;;;;;;;;;;;;;;;;5072857;28;19924;-71
2024/01/31 04:20:31;;;;;;;;;;;;;;;;;;5072842;28;20384;-71
2024/01/31 04:22:58;;;;;;;;;;;;;;;;;;5076380;28;19950;-71
2024/01/31 04:25:25;;;;;;;;;;;;;;;;;;5072636;28;20165;-72
2024/01/31 04:27:52;;;;;;;;;;;;;;;;;;5074430;28;19928;-71
2024/01/31 04:30:19;;;;;;;;;;;;;;;;;;5073060;28;19969;-72
2024/01/31 04:32:46;;;;;;;;;;;;;;;;;;5074555;28;20324;-72
2024/01/31 04:35:13;;;;;;;;;;;;;;;;;;5074279;28;19950;-72
2024/01/31 04:37:40;;;;;;;;;;;;;;;;;;5073726;28;19978;-72
2024/01/31 04:40:07;;;;;;;;;;;;;;;;;;5073885;28;20376;-72
2024/01/31 04:42:34;;;;;;;;;;;;;;;;;;5074407;28;20017;-72
2024/01/31 04:45:01;;;;;;;;;;;;;;;;;;5071898;28;19974;-71
2024/01/31 04:47:28;;;;;;;;;;;;;;;;;;5073018;28;19978;-72
2024/01/31 04:49:56;;;;;;;;;;;;;;;;;;5072795;28;20276;-71
2024/01/31 04:52:23;;;;;;;;;;;;;;;;;;5072898;28;19950;-71
2024/01/31 04:54:50;;;;;;;;;;;;;;;;;;5064088;28;19976;-71
2024/01/31 04:57:17;;;;;;;;;;;;;;;;;;5071548;28;20446;-72
2024/01/31 04:59:44;;;;;;;;;;;;;;;;;;5074567;28;19985;-72
2024/01/31 05:02:11;;;;;;;;;;;;;;;;;;5074032;28;19924;-72
2024/01/31 05:04:39;;;;;;;;;;;;;;;;;;5093148;28;20337;-72
2024/01/31 05:07:06;;;;;;;;;;;;;;;;;;5076774;28;20019;-71
2024/01/31 05:09:33;;;;;;;;;;;;;;;;;;5075040;28;19946;-71
2024/01/31 05:12:00;;;;;;;;;;;;;;;;;;5074212;28;19928;-71
2024/01/31 05:14:27;;;;;;;;;;;;;;;;;;5073915;28;20268;-72
2024/01/31 05:16:54;;;;;;;;;;;;;;;;;;5073866;28;19974;-72
2024/01/31 05:19:22;;;;;;;;;;;;;;;;;;5073563;28;19936;-71
2024/01/31 05:21:49;;;;;;;;;;;;;;;;;;5073570;28;19925;-71
2024/01/31 05:24:16;;;;;;;;;;;;;;;;;;5073871;28;20001;-72
2024/01/31 05:26:43;;;;;;;;;;;;;;;;;;5073196;28;19924;-72
2024/01/31 05:29:10;;;;;;;;;;;;;;;;;;5073129;28;19924;-71
2024/01/31 05:31:37;;;;;;;;;;;;;;;;;;5072485;28;20305;-72
2024/01/31 05:34:04;;;;;;;;;;;;;;;;;;5072362;28;20280;-71
2024/01/31 05:36:31;;;;;;;;;;;;;;;;;;5071719;28;19929;-72
2024/01/31 05:38:58;;;;;;;;;;;;;;;;;;5078246;28;19970;-74
2024/01/31 05:41:25;;;;;;;;;;;;;;;;;;5073318;28;19966;-72
2024/01/31 05:43:52;;;;;;;;;;;;;;;;;;5072855;28;19970;-72
2024/01/31 05:46:19;;;;;;;;;;;;;;;;;;5072905;28;19931;-72
2024/01/31 05:48:46;;;;;;;;;;;;;;;;;;5075719;28;19925;-72
2024/01/31 05:51:13;;;;;;;;;;;;;;;;;;5081259;28;19974;-73
2024/01/31 05:53:40;;;;;;;;;;;;;;;;;;5073028;28;20387;-72
2024/01/31 05:56:07;;;;;;;;;;;;;;;;;;5071578;28;19928;-72
2024/01/31 05:58:34;;;;;;;;;;;;;;;;;;5072793;28;19938;-73
2024/01/31 06:01:01;;;;;;;;;;;;;;;;;;5071185;28;19954;-75
2024/01/31 06:03:28;;;;;;;;;;;;;;;;;;5070372;28;19950;-72
2024/01/31 06:05:56;;;;;;;;;;;;;;;;;;5092479;28;19955;-73
2024/01/31 06:08:24;;;;;;;;;;;;;;;;;;5083634;28;20009;-72
2024/01/31 06:10:54;;;;;;;;;;;;;;;;;;5072486;28;20404;-71
2024/01/31 06:13:21;;;;;;;;;;;;;;;;;;5071818;28;19924;-71
2024/01/31 06:15:48;;;;;;;;;;;;;;;;;;5073246;28;19928;-72
2024/01/31 06:18:15;;;;;;;;;;;;;;;;;;5067955;28;19940;-71
2024/01/31 06:20:44;;;;;;;;;;;;;;;;;;5071900;28;20079;-71
2024/01/31 06:23:11;;;;;;;;;;;;;;;;;;5071282;28;20414;-72
2024/01/31 06:25:38;;;;;;;;;;;;;;;;;;5073738;28;19928;-70
2024/01/31 06:28:05;;;;;;;;;;;;;;;;;;5072420;28;19977;-71
2024/01/31 06:30:40;;;;;;;;;;;;;;;;;;5072721;28;19924;-71
2024/01/31 06:33:07;;;;;;;;;;;;;;;;;;5071835;28;19925;-71
2024/01/31 06:35:34;;;;;;;;;;;;;;;;;;5072329;28;19970;-71
2024/01/31 06:38:01;;;;;;;;;;;;;;;;;;5075783;28;20371;-71
2024/01/31 06:40:30;;;;;;;;;;;;;;;;;;5088047;28;19964;-71
2024/01/31 06:42:57;;;;;;;;;;;;;;;;;;5073441;28;19931;-71
2024/01/31 06:45:25;;;;;;;;;;;;;;;;;;5080823;28;19925;-73
2024/01/31 06:47:52;;;;;;;;;;;;;;;;;;5071346;28;19924;-72
2024/01/31 06:50:19;;;;;;;;;;;;;;;;;;5088500;28;19985;-73
2024/01/31 06:52:46;;;;;;;;;;;;;;;;;;5074657;28;20001;-72
2024/01/31 06:55:13;;;;;;;;;;;;;;;;;;5071305;28;20031;-72
2024/01/31 06:57:42;;;;;;;;;;;;;;;;;;5073091;28;19932;-73
2024/01/31 07:00:10;;;;;;;;;;;;;;;;;;5084733;28;19932;-73
2024/01/31 07:02:37;;;;;;;;;;;;;;;;;;5075208;28;19932;-73
2024/01/31 07:05:04;;;;;;;;;;;;;;;;;;5070541;28;20044;-70
2024/01/31 07:07:31;;;;;;;;;;;;;;;;;;5053806;28;19990;-72
2024/01/31 07:09:59;;;;;;;;;;;;;;;;;;5051699;28;19929;-74
2024/01/31 07:12:26;;;;;;;;;;;;;;;;;;5056301;28;19932;-73
2024/01/31 07:14:53;;;;;;;;;;;;;;;;;;5063045;28;19935;-71
2024/01/31 07:17:20;;;;;;;;;;;;;;;;;;5055961;28;20010;-71
2024/01/31 07:19:47;;;;;;;;;;;;;;;;;;5054824;22;19933;-71
2024/01/31 07:22:15;;;;;;;;;;;;;;;;;;5035575;28;20058;-71
2024/01/31 07:24:42;;;;;;;;;;;;;;;;;;5033083;28;19933;-72
2024/01/31 07:27:09;;;;;;;;;;;;;;;;;;5032212;28;20010;-72
2024/01/31 07:29:36;;;;;;;;;;;;;;;;;;5032828;28;20423;-73
2024/01/31 07:32:03;;;;;;;;;;;;;;;;;;5035111;28;19995;-73
2024/01/31 07:34:30;;;;;;;;;;;;;;;;;;5034086;28;19982;-73
2024/01/31 07:36:57;;;;;;;;;;;;;;;;;;5032495;28;19939;-72
2024/01/31 07:39:25;;;;;;;;;;;;;;;;;;5029928;28;19931;-72
2024/01/31 07:41:52;;;;;;;;;;;;;;;;;;5033880;28;19978;-71
2024/01/31 07:44:19;;;;;;;;;;;;;;;;;;5052923;28;19932;-71
2024/01/31 07:46:46;;;;;;;;;;;;;;;;;;5050918;28;19998;-72
2024/01/31 07:49:13;;;;;;;;;;;;;;;;;;5051381;28;19982;-71
2024/01/31 07:51:40;;;;;;;;;;;;;;;;;;5050928;28;19924;-71
2024/01/31 07:54:07;;;;;;;;;;;;;;;;;;5055229;28;20017;-71
2024/01/31 07:56:34;;;;;;;;;;;;;;;;;;5060132;28;19986;-71
2024/01/31 07:59:01;;;;;;;;;;;;;;;;;;5054399;28;19925;-72
2024/01/31 08:01:28;;;;;;;;;;;;;;;;;;5051700;28;20458;-71
2024/01/31 08:03:55;;;;;;;;;;;;;;;;;;5050245;28;19925;-72
2024/01/31 08:06:22;;;;;;;;;;;;;;;;;;5053498;28;20252;-72
2024/01/31 08:08:51;;;;;;;;;;;;;;;;;;5052362;28;19986;-75
2024/01/31 08:11:18;;;;;;;;;;;;;;;;;;5053469;28;19924;-75
2024/01/31 08:13:45;;;;;;;;;;;;;;;;;;5051379;28;20380;-75
2024/01/31 08:16:14;;;;;;;;;;;;;;;;;;5054316;28;19929;-76
2024/01/31 08:18:42;;;;;;;;;;;;;;;;;;5052963;28;19978;-75
2024/01/31 08:21:09;;;;;;;;;;;;;;;;;;5052068;28;20470;-76
2024/01/31 08:23:36;;;;;;;;;;;;;;;;;;5052487;28;20388;-72
2024/01/31 08:26:03;;;;;;;;;;;;;;;;;;5044997;28;19925;-71
2024/01/31 08:28:30;;;;;;;;;;;;;;;;;;5042801;28;19924;-71
2024/01/31 08:30:57;;;;;;;;;;;;;;;;;;5053397;28;20423;-72
2024/01/31 08:33:24;;;;;;;;;;;;;;;;;;5046502;28;19925;-73
2024/01/31 08:35:51;;;;;;;;;;;;;;;;;;5051799;28;20013;-72
2024/01/31 08:38:19;;;;;;;;;;;;;;;;;;5043665;28;20045;-75
2024/01/31 08:40:46;;;;;;;;;;;;;;;;;;5046827;28;20292;-76
2024/01/31 08:43:13;;;;;;;;;;;;;;;;;;5053074;28;19932;-76
2024/01/31 08:45:40;;;;;;;;;;;;;;;;;;5053662;28;19964;-76
2024/01/31 08:48:07;;;;;;;;;;;;;;;;;;5052279;28;20391;-75
2024/01/31 08:50:34;;;;;;;;;;;;;;;;;;5052493;28;19970;-75
2024/01/31 08:53:01;;;;;;;;;;;;;;;;;;5053529;28;19932;-77
2024/01/31 08:55:28;;;;;;;;;;;;;;;;;;5053283;28;19924;-76
2024/01/31 08:57:55;;;;;;;;;;;;;;;;;;5052451;28;19929;-76
2024/01/31 09:00:22;;;;;;;;;;;;;;;;;;5049203;28;19952;-76
2024/01/31 09:02:49;;;;;;;;;;;;;;;;;;5050163;28;19951;-78
2024/01/31 09:05:16;;;;;;;;;;;;;;;;;;5051493;28;19931;-75
2024/01/31 09:07:43;;;;;;;;;;;;;;;;;;5051320;28;19925;-76
2024/01/31 09:10:10;;;;;;;;;;;;;;;;;;5052876;28;19963;-77
2024/01/31 09:12:37;;;;;;;;;;;;;;;;;;5047855;28;19968;-77
2024/01/31 09:15:05;;;;;;;;;;;;;;;;;;5047556;28;19925;-75
2024/01/31 09:17:32;;;;;;;;;;;;;;;;;;5051593;28;19967;-77
2024/01/31 09:19:59;;;;;;;;;;;;;;;;;;5044449;28;19967;-75
2024/01/31 09:22:26;;;;;;;;;;;;;;;;;;5048708;28;19968;-74
2024/01/31 09:24:53;;;;;;;;;;;;;;;;;;5046533;28;19936;-79
2024/01/31 09:27:20;;;;;;;;;;;;;;;;;;5049318;28;20434;-79
2024/01/31 09:29:47;;;;;;;;;;;;;;;;;;5047129;28;19925;-78
2024/01/31 09:32:14;;;;;;;;;;;;;;;;;;5037534;28;19928;-78
2024/01/31 09:34:41;;;;;;;;;;;;;;;;;;5048465;28;19935;-81
2024/01/31 09:37:08;;;;;;;;;;;;;;;;;;5049629;28;20004;-79
2024/01/31 09:39:36;;;;;;;;;;;;;;;;;;5050614;28;19932;-84
2024/01/31 09:42:03;;;;;;;;;;;;;;;;;;5053886;28;19924;-83
2024/01/31 09:44:34;;;;;;;;;;;;;;;;;;5053168;28;19936;-82
2024/01/31 09:47:01;;;;;;;;;;;;;;;;;;5052800;28;19929;-81
2024/01/31 09:49:28;;;;;;;;;;;;;;;;;;5051787;28;19941;-78
2024/01/31 09:51:56;;;;;;;;;;;;;;;;;;5051961;28;19986;-80
2024/01/31 09:54:23;;;;;;;;;;;;;;;;;;5052894;28;20754;-80
2024/01/31 09:56:50;;;;;;;;;;;;;;;;;;5052413;28;19987;-79
2024/01/31 09:59:17;;;;;;;;;;;;;;;;;;5051036;28;19924;-77
2024/01/31 10:01:44;;;;;;;;;;;;;;;;;;5050093;28;19932;-81
2024/01/31 10:04:11;;;;;;;;;;;;;;;;;;5051866;28;19925;-82
2024/01/31 10:06:39;;;;;;;;;;;;;;;;;;5049990;28;19976;-82
2024/01/31 10:09:06;;;;;;;;;;;;;;;;;;5047950;28;19925;-77
2024/01/31 10:11:33;;;;;;;;;;;;;;;;;;5051428;28;19933;-80
2024/01/31 10:14:00;;;;;;;;;;;;;;;;;;5049066;28;19932;-83
2024/01/31 10:16:27;;;;;;;;;;;;;;;;;;5051874;28;19974;-84
2024/01/31 10:18:54;;;;;;;;;;;;;;;;;;5045376;28;19925;-83
2024/01/31 10:21:21;;;;;;;;;;;;;;;;;;5050601;28;20345;-82
2024/01/31 10:23:48;;;;;;;;;;;;;;;;;;5046747;28;20403;-84
2024/01/31 10:26:15;;;;;;;;;;;;;;;;;;5051318;28;19978;-83
2024/01/31 10:28:42;;;;;;;;;;;;;;;;;;5045793;28;19978;-85
2024/01/31 10:31:10;;;;;;;;;;;;;;;;;;5053363;28;19995;-82
2024/01/31 10:33:37;;;;;;;;;;;;;;;;;;5052041;28;19986;-83
2024/01/31 10:36:04;;;;;;;;;;;;;;;;;;5047749;28;19936;-85
2024/01/31 10:38:32;;;;;;;;;;;;;;;;;;5049882;28;19975;-83
2024/01/31 10:40:59;;;;;;;;;;;;;;;;;;5051367;28;19931;-82
2024/01/31 10:43:26;;;;;;;;;;;;;;;;;;5050656;28;19978;-82
2024/01/31 10:45:53;;;;;;;;;;;;;;;;;;5050978;28;19925;-82
2024/01/31 10:48:20;;;;;;;;;;;;;;;;;;5043920;28;19931;-83
2024/01/31 10:50:47;;;;;;;;;;;;;;;;;;5043482;28;19925;-81
2024/01/31 10:53:14;;;;;;;;;;;;;;;;;;5050636;28;20058;-84
2024/01/31 10:55:41;;;;;;;;;;;;;;;;;;5049479;28;20344;-83
2024/01/31 10:58:09;;;;;;;;;;;;;;;;;;5051129;28;19925;-80
2024/01/31 11:00:37;;;;;;;;;;;;;;;;;;5050658;28;19932;-77
2024/01/31 11:03:04;;;;;;;;;;;;;;;;;;5047672;28;20414;-80
2024/01/31 11:05:31;;;;;;;;;;;;;;;;;;5054137;28;19933;-77
2024/01/31 11:07:59;;;;;;;;;;;;;;;;;;5049618;28;19928;-78
2024/01/31 11:10:27;;;;;;;;;;;;;;;;;;5049007;28;19925;-75
2024/01/31 11:12:54;;;;;;;;;;;;;;;;;;5042047;28;20316;-79
2024/01/31 11:15:21;;;;;;;;;;;;;;;;;;5049902;28;19925;-77
2024/01/31 11:17:51;;;;;;;;;;;;;;;;;;5049115;28;19929;-83
2024/01/31 11:20:19;;;;;;;;;;;;;;;;;;5055141;28;20343;-82
2024/01/31 11:22:46;;;;;;;;;;;;;;;;;;5051842;28;20268;-80
2024/01/31 11:25:13;;;;;;;;;;;;;;;;;;5051014;28;19972;-78
2024/01/31 11:27:40;;;;;;;;;;;;;;;;;;5052327;28;19935;-81
2024/01/31 11:30:07;;;;;;;;;;;;;;;;;;5047579;28;20519;-75
2024/01/31 11:32:35;;;;;;;;;;;;;;;;;;5042958;28;19933;-79
2024/01/31 11:35:04;;;;;;;;;;;;;;;;;;5042965;28;20014;-82
2024/01/31 11:37:31;;;;;;;;;;;;;;;;;;5055485;28;19925;-88
2024/01/31 11:39:58;;;;;;;;;;;;;;;;;;5053415;28;19979;-80
2024/01/31 11:42:25;;;;;;;;;;;;;;;;;;5052678;28;19925;-81
2024/01/31 11:44:52;;;;;;;;;;;;;;;;;;5053703;28;20365;-81
2024/01/31 11:47:20;;;;;;;;;;;;;;;;;;5054635;28;20552;-79
2024/01/31 11:49:47;;;;;;;;;;;;;;;;;;5053923;28;20457;-80
2024/01/31 11:52:14;;;;;;;;;;;;;;;;;;5050214;28;19929;-81
2024/01/31 11:54:41;;;;;;;;;;;;;;;;;;5057682;28;20021;-82
2024/01/31 11:57:08;;;;;;;;;;;;;;;;;;5062941;28;19952;-79
2024/01/31 11:59:35;;;;;;;;;;;;;;;;;;5053150;28;20384;-80
2024/01/31 12:02:02;;;;;;;;;;;;;;;;;;5053263;28;19967;-78
2024/01/31 12:04:29;;;;;;;;;;;;;;;;;;5044927;28;19967;-81
2024/01/31 12:06:56;;;;;;;;;;;;;;;;;;5044751;28;19979;-81
2024/01/31 12:09:23;;;;;;;;;;;;;;;;;;5049067;28;19929;-80
2024/01/31 12:11:50;;;;;;;;;;;;;;;;;;5054173;28;19947;-79
2024/01/31 12:14:17;;;;;;;;;;;;;;;;;;5052456;28;19925;-78
2024/01/31 12:16:44;;;;;;;;;;;;;;;;;;5052856;28;19987;-77
2024/01/31 12:19:11;;;;;;;;;;;;;;;;;;5053000;28;19952;-82
2024/01/31 12:21:38;;;;;;;;;;;;;;;;;;5043914;28;19925;-84
2024/01/31 12:24:10;;;;;;;;;;;;;;;;;;5049570;28;19925;-84
2024/01/31 12:26:37;;;;;;;;;;;;;;;;;;5052945;28;19931;-81
2024/01/31 12:29:04;;;;;;;;;;;;;;;;;;5051402;28;19933;-82
2024/01/31 12:31:31;;;;;;;;;;;;;;;;;;5040206;28;19929;-80
2024/01/31 12:33:59;;;;;;;;;;;;;;;;;;5046766;28;19928;-81
2024/01/31 12:36:27;;;;;;;;;;;;;;;;;;5050357;28;19936;-81
2024/01/31 12:38:54;;;;;;;;;;;;;;;;;;5056040;28;20000;-81
2024/01/31 12:41:21;;;;;;;;;;;;;;;;;;5040062;28;19929;-80
2024/01/31 12:43:48;;;;;;;;;;;;;;;;;;5051936;28;19925;-81
2024/01/31 12:46:16;;;;;;;;;;;;;;;;;;5048760;28;19925;-79
2024/01/31 12:48:43;;;;;;;;;;;;;;;;;;5045593;28;19932;-79
2024/01/31 12:51:10;;;;;;;;;;;;;;;;;;5040939;28;19979;-78
2024/01/31 12:53:37;;;;;;;;;;;;;;;;;;5047184;28;19926;-80
2024/01/31 12:56:04;;;;;;;;;;;;;;;;;;5049598;28;20018;-80
2024/01/31 12:58:31;;;;;;;;;;;;;;;;;;5045914;28;19990;-79
2024/01/31 13:00:58;;;;;;;;;;;;;;;;;;5052164;28;20014;-78
2024/01/31 13:03:25;;;;;;;;;;;;;;;;;;5051306;28;19948;-80
2024/01/31 13:05:53;;;;;;;;;;;;;;;;;;5050652;28;19933;-80
2024/01/31 13:08:20;;;;;;;;;;;;;;;;;;5051822;28;19925;-86
2024/01/31 13:10:47;;;;;;;;;;;;;;;;;;5053713;28;19925;-87
2024/01/31 13:13:14;;;;;;;;;;;;;;;;;;5050497;28;19971;-85
2024/01/31 13:15:41;;;;;;;;;;;;;;;;;;5052482;28;19960;-82
2024/01/31 13:18:08;;;;;;;;;;;;;;;;;;5046904;28;19924;-85
2024/01/31 13:20:35;;;;;;;;;;;;;;;;;;5048172;28;19933;-85
2024/01/31 13:23:02;;;;;;;;;;;;;;;;;;5050060;28;19929;-86
2024/01/31 13:25:30;;;;;;;;;;;;;;;;;;5053679;28;19983;-86
2024/01/31 13:27:57;;;;;;;;;;;;;;;;;;5060619;28;19924;-88
2024/01/31 13:30:24;;;;;;;;;;;;;;;;;;5045522;28;19936;-86
2024/01/31 13:32:51;;;;;;;;;;;;;;;;;;5052913;28;19932;-87
2024/01/31 13:35:18;;;;;;;;;;;;;;;;;;5051599;28;20303;-88
2024/01/31 13:37:45;;;;;;;;;;;;;;;;;;5051367;28;19925;-86
2024/01/31 13:40:12;;;;;;;;;;;;;;;;;;5051751;28;20384;-70
2024/01/31 13:53:39;;;;;;;;;;;;;;;;;;5016891;28;19927;-77
2024/01/31 13:56:06;;;;;;;;;;;;;;;;;;5022241;28;19936;-72
2024/01/31 13:58:34;;;;;;;;;;;;;;;;;;5062307;28;19939;-75
2024/01/31 14:01:01;;;;;;;;;;;;;;;;;;5063978;28;19935;-77
2024/01/31 14:03:28;;;;;;;;;;;;;;;;;;5044838;28;19928;-76
2024/01/31 14:05:55;;;;;;;;;;;;;;;;;;5047932;28;19964;-76
2024/01/31 14:08:22;;;;;;;;;;;;;;;;;;5039728;28;19936;-76
2024/01/31 14:10:49;;;;;;;;;;;;;;;;;;5040548;28;20687;-82
2024/01/31 14:13:16;;;;;;;;;;;;;;;;;;5047011;28;20220;-78
2024/01/31 14:15:43;;;;;;;;;;;;;;;;;;5038943;28;20032;-80
2024/01/31 14:18:10;;;;;;;;;;;;;;;;;;5047475;28;20983;-89
2024/01/31 14:20:37;;;;;;;;;;;;;;;;;;5050260;28;19928;-86
2024/01/31 14:23:05;;;;;;;;;;;;;;;;;;5063756;28;19976;-88
2024/01/31 14:25:32;;;;;;;;;;;;;;;;;;5068300;28;19928;-89
2024/01/31 14:27:59;;;;;;;;;;;;;;;;;;5069892;28;20002;-89
2024/01/31 14:30:28;;;;;;;;;;;;;;;;;;5070018;28;20379;-90
2024/01/31 14:32:57;;;;;;;;;;;;;;;;;;5070943;28;19928;-92
2024/01/31 14:35:24;;;;;;;;;;;;;;;;;;5069608;28;19935;-89
2024/01/31 14:37:51;;;;;;;;;;;;;;;;;;5069441;28;20383;-92
2024/01/31 14:40:18;;;;;;;;;;;;;;;;;;5067884;28;20399;-88
2024/01/31 14:42:45;;;;;;;;;;;;;;;;;;5065190;28;20019;-84
2024/01/31 14:45:13;;;;;;;;;;;;;;;;;;5063340;28;20019;-78
2024/01/31 14:47:40;;;;;;;;;;;;;;;;;;5062129;28;19988;-82
2024/01/31 14:50:07;;;;;;;;;;;;;;;;;;5060723;28;19942;-82
2024/01/31 14:52:34;;;;;;;;;;;;;;;;;;5067803;28;19929;-81
2024/01/31 14:55:01;;;;;;;;;;;;;;;;;;5067203;28;19978;-83
2024/01/31 14:57:28;;;;;;;;;;;;;;;;;;5065901;28;19928;-84
2024/01/31 14:59:55;;;;;;;;;;;;;;;;;;5069182;28;19972;-85
2024/01/31 15:02:23;;;;;;;;;;;;;;;;;;5066067;28;19982;-84
2024/01/31 15:04:50;;;;;;;;;;;;;;;;;;5062767;28;19928;-83
2024/01/31 15:07:17;;;;;;;;;;;;;;;;;;5065206;28;20420;-83
2024/01/31 15:09:44;;;;;;;;;;;;;;;;;;5060439;28;19976;-82
2024/01/31 15:12:11;;;;;;;;;;;;;;;;;;5066328;28;19972;-72
2024/01/31 15:14:39;;;;;;;;;;;;;;;;;;5065967;28;20420;-87
2024/01/31 15:17:06;;;;;;;;;;;;;;;;;;5065056;28;19936;-83
2024/01/31 15:19:33;;;;;;;;;;;;;;;;;;5061821;28;19928;-84
2024/01/31 15:22:01;;;;;;;;;;;;;;;;;;5062210;28;19986;-82
2024/01/31 15:24:28;;;;;;;;;;;;;;;;;;5058240;28;19929;-81
2024/01/31 15:26:55;;;;;;;;;;;;;;;;;;5065939;28;19968;-82
2024/01/31 15:29:22;;;;;;;;;;;;;;;;;;5066231;28;20281;-83
2024/01/31 15:31:51;;;;;;;;;;;;;;;;;;5067386;28;20446;-81
2024/01/31 15:34:18;;;;;;;;;;;;;;;;;;5065363;28;19947;-85
2024/01/31 15:36:49;;;;;;;;;;;;;;;;;;5064832;28;20572;-80
2024/01/31 15:39:16;;;;;;;;;;;;;;;;;;5063236;28;19933;-84
2024/01/31 15:41:44;;;;;;;;;;;;;;;;;;5057713;28;19932;-82
2024/01/31 15:44:11;;;;;;;;;;;;;;;;;;5060278;28;19928;-76
2024/01/31 15:46:38;;;;;;;;;;;;;;;;;;5060286;28;19986;-86
2024/01/31 15:49:05;;;;;;;;;;;;;;;;;;5061251;28;19968;-79
2024/01/31 15:51:38;;;;;;;;;;;;;;;;;;5066805;28;20051;-84
2024/01/31 15:54:05;;;;;;;;;;;;;;;;;;5066663;28;20732;-81
2024/01/31 15:56:33;;;;;;;;;;;;;;;;;;5063512;28;19928;-79
2024/01/31 15:59:00;;;;;;;;;;;;;;;;;;5062098;28;20016;-76
2024/01/31 16:01:27;;;;;;;;;;;;;;;;;;5061147;28;19951;-80
2024/01/31 16:03:54;;;;;;;;;;;;;;;;;;5055650;28;19940;-81
2024/01/31 16:06:21;;;;;;;;;;;;;;;;;;5065310;28;19962;-81
2024/01/31 16:08:48;;;;;;;;;;;;;;;;;;5066832;28;20006;-82
2024/01/31 16:11:15;;;;;;;;;;;;;;;;;;5061438;28;20383;-80
2024/01/31 16:13:42;;;;;;;;;;;;;;;;;;5062612;28;20618;-77
2024/01/31 16:16:09;;;;;;;;;;;;;;;;;;5062983;28;20403;-77
2024/01/31 16:18:36;;;;;;;;;;;;;;;;;;5056714;28;19928;-78
2024/01/31 16:21:03;;;;;;;;;;;;;;;;;;5064930;28;19982;-81
2024/01/31 16:23:30;;;;;;;;;;;;;;;;;;5064701;28;20374;-81
2024/01/31 16:25:58;;;;;;;;;;;;;;;;;;5069714;28;20514;-84
2024/01/31 16:28:25;;;;;;;;;;;;;;;;;;5067466;28;20012;-85
2024/01/31 16:30:55;;;;;;;;;;;;;;;;;;5063247;28;19935;-87
2024/01/31 16:33:23;;;;;;;;;;;;;;;;;;5071284;28;19928;-85
2024/01/31 16:35:51;;;;;;;;;;;;;;;;;;5064114;28;19935;-86
2024/01/31 16:38:18;;;;;;;;;;;;;;;;;;5061603;28;19982;-87
2024/01/31 16:40:45;;;;;;;;;;;;;;;;;;5064553;28;20007;-87
2024/01/31 16:43:12;;;;;;;;;;;;;;;;;;5071244;28;19955;-86
2024/01/31 16:45:48;;;;;;;;;;;;;;;;;;5062103;28;20383;-88
2024/01/31 16:48:16;;;;;;;;;;;;;;;;;;5059455;28;19935;-90
2024/01/31 16:50:43;;;;;;;;;;;;;;;;;;5056708;22;20198;-86
2024/01/31 16:53:14;;;;;;;;;;;;;;;;;;5035945;28;19929;-87
2024/01/31 16:55:41;;;;;;;;;;;;;;;;;;5045964;28;19979;-87